createdAt,value
2023-02-11T00:00:03.835Z,-4.56
2023-02-11T00:05:03.776Z,-4.56
2023-02-11T00:10:03.776Z,-4.62
2023-02-11T00:15:03.875Z,-4.62
2023-02-11T00:20:05.457Z,-4.62
2023-02-11T00:25:03.840Z,-4.62
2023-02-11T00:30:03.832Z,-4.68
2023-02-11T00:35:03.889Z,-4.87
2023-02-11T00:40:06.356Z,-4.93
2023-02-11T00:45:03.804Z,-4.87
2023-02-11T00:50:03.797Z,-4.93
2023-02-11T00:55:03.806Z,-5
2023-02-11T01:00:03.805Z,-5
2023-02-11T01:05:03.833Z,-4.93
2023-02-11T01:10:03.815Z,-4.87
2023-02-11T01:15:03.798Z,-4.75
2023-02-11T01:20:03.807Z,-4.93
2023-02-11T01:25:03.927Z,-5.18
2023-02-11T01:30:03.838Z,-5
2023-02-11T01:35:03.812Z,-5.25
2023-02-11T01:40:03.817Z,-5.37
2023-02-11T01:45:03.797Z,-5.37
2023-02-11T01:50:03.830Z,-5.37
2023-02-11T01:55:03.811Z,-5.18
2023-02-11T02:00:08.917Z,-5
2023-02-11T02:05:03.816Z,-5.12
2023-02-11T02:10:03.820Z,-5.31
2023-02-11T02:15:03.857Z,-5.25
2023-02-11T02:20:03.883Z,-5.31
2023-02-11T02:25:03.807Z,-5.37
2023-02-11T02:30:03.919Z,-4.87
2023-02-11T02:35:03.812Z,-5
2023-02-11T02:40:03.814Z,-5.18
2023-02-11T02:45:03.893Z,-5.31
2023-02-11T02:50:03.877Z,-5.31
2023-02-11T02:55:03.790Z,-5.5
2023-02-11T03:00:03.806Z,-5.37
2023-02-11T03:05:03.874Z,-5.43
2023-02-11T03:10:03.814Z,-5.56
2023-02-11T03:15:03.819Z,-5.37
2023-02-11T03:20:03.830Z,-5.5
2023-02-11T03:25:03.829Z,-5.37
2023-02-11T03:30:03.839Z,-5.43
2023-02-11T03:35:03.877Z,-5.56
2023-02-11T03:40:03.857Z,-5.62
2023-02-11T03:45:03.848Z,-5.5
2023-02-11T03:50:03.862Z,-5.43
2023-02-11T03:55:03.827Z,-5.12
2023-02-11T04:00:03.827Z,-5.18
2023-02-11T04:05:03.879Z,-5
2023-02-11T04:10:03.816Z,-5.31
2023-02-11T04:15:03.886Z,-5.31
2023-02-11T04:20:03.846Z,-5.56
2023-02-11T04:25:03.827Z,-5.56
2023-02-11T04:30:03.866Z,-5.18
2023-02-11T04:35:03.924Z,-5.37
2023-02-11T04:40:03.841Z,-5.18
2023-02-11T04:45:03.864Z,-5.75
2023-02-11T04:50:03.875Z,-5.56
2023-02-11T04:55:03.859Z,-5.43
2023-02-11T05:00:03.935Z,-5.5
2023-02-11T05:05:03.858Z,-5.75
2023-02-11T05:10:03.938Z,-5.43
2023-02-11T05:15:03.923Z,-5.12
2023-02-11T05:20:03.864Z,-4.56
2023-02-11T05:25:03.882Z,-4.25
2023-02-11T05:30:03.900Z,-4.25
2023-02-11T05:35:03.846Z,-4.37
2023-02-11T05:40:03.864Z,-4.37
2023-02-11T05:45:03.856Z,-4.56
2023-02-11T05:50:03.850Z,-4.5
2023-02-11T05:55:03.909Z,-4.25
2023-02-11T06:00:03.880Z,-4.12
2023-02-11T06:05:03.866Z,-4.06
2023-02-11T06:10:03.864Z,-3.93
2023-02-11T06:15:03.895Z,-4
2023-02-11T06:20:03.895Z,-3.31
2023-02-11T06:25:03.977Z,-3.25
2023-02-11T06:30:03.994Z,-3
2023-02-11T06:35:03.885Z,-3
2023-02-11T06:40:03.878Z,-2.81
2023-02-11T06:50:03.916Z,-2.43
2023-02-11T06:55:03.873Z,-2.75
2023-02-11T07:00:05.400Z,-2.62
2023-02-11T07:05:03.865Z,-2.43
2023-02-11T07:10:03.874Z,-2.12
2023-02-11T07:15:03.892Z,-1.87
2023-02-11T07:20:03.892Z,-1.81
2023-02-11T07:30:06.956Z,-1.93
2023-02-11T07:35:03.983Z,-1.68
2023-02-11T07:40:03.989Z,-1.56
2023-02-11T07:45:03.881Z,-1.5
2023-02-11T07:50:03.851Z,-1.31
2023-02-11T07:55:04.978Z,-1.18
2023-02-11T08:00:03.858Z,-0.37
2023-02-11T08:05:03.878Z,-0.06
2023-02-11T08:10:04.057Z,-0.18
2023-02-11T08:15:03.911Z,0.68
2023-02-11T08:20:03.945Z,1.06
2023-02-11T08:25:03.874Z,0.81
2023-02-11T08:30:03.872Z,0.68
2023-02-11T08:35:03.840Z,0.25
2023-02-11T08:40:03.845Z,-0.06
2023-02-11T08:45:03.805Z,-0.31
2023-02-11T08:50:03.818Z,-0.25
2023-02-11T08:55:03.844Z,0.18
2023-02-11T09:00:03.854Z,0.68
2023-02-11T09:05:03.858Z,1.12
2023-02-11T09:10:03.835Z,1.06
2023-02-11T09:20:03.897Z,1.18
2023-02-11T09:25:03.835Z,1.5
2023-02-11T09:30:03.809Z,1.56
2023-02-11T09:35:03.832Z,2.31
2023-02-11T09:40:03.890Z,2.25
2023-02-11T09:45:03.852Z,1.87
2023-02-11T09:50:03.813Z,1.93
2023-02-11T09:55:03.810Z,2.68
2023-02-11T10:00:03.848Z,3.37
2023-02-11T10:05:03.810Z,3.56
2023-02-11T10:10:03.827Z,3.5
2023-02-11T10:15:03.806Z,4.06
2023-02-11T10:20:03.868Z,4.31
2023-02-11T10:25:03.788Z,4.43
2023-02-11T10:30:03.839Z,4.75
2023-02-11T10:35:03.859Z,5.06
2023-02-11T10:40:03.767Z,4.81
2023-02-11T10:45:03.790Z,4.87
2023-02-11T10:55:03.781Z,4.68
2023-02-11T11:00:03.804Z,4.31
2023-02-11T11:05:03.947Z,4.75
2023-02-11T11:30:03.824Z,6.56
2023-02-11T11:35:03.751Z,7
2023-02-11T11:40:03.710Z,7.25
2023-02-11T11:45:03.891Z,7.12
2023-02-11T11:50:03.712Z,6.62
2023-02-11T11:55:03.700Z,6.5
2023-02-11T12:00:03.734Z,6.68
2023-02-11T12:05:03.734Z,6.12
2023-02-11T12:10:03.713Z,5.87
2023-02-11T12:15:03.720Z,6.12
2023-02-11T12:20:03.688Z,5.62
2023-02-11T12:25:03.704Z,5.43
2023-02-11T12:30:03.841Z,5.75
2023-02-11T12:35:03.682Z,5.62
2023-02-11T12:40:03.687Z,5.81
2023-02-11T12:45:03.713Z,5.93
2023-02-11T12:50:03.661Z,6.37
2023-02-11T12:55:03.707Z,6.12
2023-02-11T13:00:03.671Z,6.12
2023-02-11T13:05:03.939Z,5.87
2023-02-11T13:10:03.704Z,5.93
2023-02-11T13:15:03.733Z,6.25
2023-02-11T13:20:03.658Z,6.12
2023-02-11T13:25:03.630Z,6.5
2023-02-11T13:30:04.344Z,6.31
2023-02-11T13:35:03.627Z,6.31
2023-02-11T13:40:03.704Z,6.12
2023-02-11T13:45:03.600Z,6.25
2023-02-11T13:50:03.992Z,6.5
2023-02-11T13:55:03.614Z,6.62
2023-02-11T14:00:03.635Z,6.56
2023-02-11T14:05:03.675Z,6.37
2023-02-11T14:10:03.643Z,6.31
2023-02-11T14:15:06.106Z,6
2023-02-11T14:20:03.618Z,6.06
2023-02-11T14:25:03.670Z,6
2023-02-11T14:30:03.617Z,5.87
2023-02-11T14:35:03.575Z,6
2023-02-11T14:40:03.634Z,5.93
2023-02-11T14:45:03.639Z,5.87
2023-02-11T14:50:03.554Z,5.62
2023-02-11T14:55:03.553Z,5.37
2023-02-11T15:00:03.606Z,5.5
2023-02-11T15:05:03.616Z,5.37
2023-02-11T15:10:03.558Z,5.37
2023-02-11T15:15:03.628Z,5.25
2023-02-11T15:20:04.352Z,5.18
2023-02-11T15:25:03.542Z,5.18
2023-02-11T15:30:03.544Z,5.18
2023-02-11T15:35:03.642Z,4.93
2023-02-11T15:45:03.532Z,4.75
2023-02-11T15:50:03.953Z,4.75
2023-02-11T15:55:03.591Z,4.56
2023-02-11T16:00:03.693Z,4.56
2023-02-11T16:05:03.513Z,4.43
2023-02-11T16:10:03.592Z,4.43
2023-02-11T16:15:03.547Z,4.18
2023-02-11T16:20:03.484Z,4.06
2023-02-11T16:25:03.507Z,3.81
2023-02-11T16:30:03.509Z,3.75
2023-02-11T16:35:03.479Z,3.37
2023-02-11T16:40:03.466Z,3.06
2023-02-11T16:45:03.463Z,3
2023-02-11T16:50:03.476Z,3.12
2023-02-11T16:55:03.482Z,3.12
2023-02-11T17:00:03.634Z,3.37
2023-02-11T17:05:03.546Z,3.12
2023-02-11T17:10:03.568Z,3.43
2023-02-11T17:15:05.449Z,3.37
2023-02-11T17:20:03.447Z,3.06
2023-02-11T17:25:03.439Z,2.87
2023-02-11T17:30:03.678Z,2.68
2023-02-11T17:35:03.476Z,2.75
2023-02-11T17:40:03.471Z,2.5
2023-02-11T17:45:03.429Z,3.12
2023-02-11T17:50:03.433Z,2.62
2023-02-11T17:55:03.409Z,2.43
2023-02-11T18:00:03.504Z,2.62
2023-02-11T18:05:03.559Z,2.37
2023-02-11T18:10:03.467Z,2.37
2023-02-11T18:15:03.437Z,2.43
2023-02-11T18:20:03.568Z,2.75
2023-02-11T18:25:03.421Z,3.06
2023-02-11T18:30:03.533Z,3.12
2023-02-11T18:35:03.404Z,3.37
2023-02-11T18:40:03.398Z,3.37
2023-02-11T18:45:03.516Z,3.56
2023-02-11T18:50:03.451Z,3.37
2023-02-11T18:55:03.421Z,3.25
2023-02-11T19:00:03.401Z,2.81
2023-02-11T19:05:03.400Z,2.93
2023-02-11T19:10:03.395Z,2.81
2023-02-11T19:15:05.447Z,3.12
2023-02-11T19:20:03.642Z,3.31
2023-02-11T19:25:03.367Z,2.93
2023-02-11T19:30:03.373Z,2.62
2023-02-11T19:35:03.411Z,2.75
2023-02-11T19:40:03.477Z,3
2023-02-11T19:45:03.370Z,2.93
2023-02-11T19:50:03.380Z,3.06
2023-02-11T19:55:03.366Z,2.68
2023-02-11T20:00:03.394Z,2.68
2023-02-11T20:05:03.597Z,2.68
2023-02-11T20:10:03.360Z,2.5
2023-02-11T20:15:03.439Z,2.37
2023-02-11T20:20:03.328Z,2.31
2023-02-11T20:25:03.360Z,2.5
2023-02-11T20:30:03.383Z,2.56
2023-02-11T20:35:03.476Z,2.56
2023-02-11T20:40:03.541Z,2.87
2023-02-11T20:45:03.329Z,2.5
2023-02-11T20:50:03.351Z,2.56
2023-02-11T20:55:03.330Z,3.12
2023-02-11T21:00:04.326Z,3.31
2023-02-11T21:05:03.316Z,3.62
2023-02-11T21:10:03.395Z,3.81
2023-02-11T21:15:03.409Z,3.75
2023-02-11T21:20:03.326Z,3.75
2023-02-11T21:25:03.316Z,3.87
2023-02-11T21:30:03.331Z,3.87
2023-02-11T21:35:03.327Z,3.93
2023-02-11T21:40:03.319Z,4.12
2023-02-11T21:45:03.296Z,4
2023-02-11T21:50:03.326Z,4.06
2023-02-11T21:55:03.280Z,4.12
2023-02-11T22:00:05.030Z,4.06
2023-02-11T22:05:03.337Z,4.18
2023-02-11T22:15:03.344Z,4
2023-02-11T22:20:03.386Z,4.06
2023-02-11T22:25:03.263Z,3.93
2023-02-11T22:40:03.272Z,3.87
2023-02-11T22:50:03.263Z,4
2023-02-11T23:11:44.072Z,3.81
2023-02-11T23:35:03.223Z,3.75
2023-02-11T23:40:03.320Z,3.75
2023-02-11T23:45:03.239Z,3.62
2023-02-11T23:50:03.341Z,3.68
2023-02-11T23:55:03.295Z,3.37
